Portada
METAR-TAF:

METAR-TAF

Aeropuertos :

Jendouba, Túnez

latitud: 36-29N, longitud: 008-48E, altitud: 143 m

Observación

El informe se hizo hace 32 minutos, a las 14:00 UTC
Viento 9 kt del norte-noroeste, variando entre oeste y noreste
Temperatura 29°C
Humedad 40%
Presión 1019 hPa
Visibilidad 10 km o más
Nubes dispersas a una altura de 2000 ft

METAR: DTTN 131400Z 34009KT 260V050 9999 SCT020 29/14 Q1019

Hora: 15:32 (14:32 UTC)


TAF: falta

Observaciones y pronósticos meteorológicos de más de 4000 aeropuertos (mensajes METAR y TAF).

Los puntos amarillos y rojos representan las estaciones disponibles.

Ponga el ratón en el punto deseado para ver el nombre de la estación.

Haga clic para ver las observaciones y los pronósticos meteorológicos.

Para cambiar el mapa : haga clic en los botones verdes con una cruz de color negro para hacer un zoom, en el botón verde con un guión para alejar o en las flechas verdes para mapas adyacentes.


METAR-TAF: